sensor_id;sensor_type;location;lat;lon;timestamp;P1;durP1;ratioP1;P2;durP2;ratioP2
58528;SDS011;44322;52.968;5.816;2023-04-15T00:01:22;10.73;;;5.38;;
58528;SDS011;44322;52.968;5.816;2023-04-15T00:03:49;8.05;;;4.85;;
58528;SDS011;44322;52.968;5.816;2023-04-15T00:06:19;10.95;;;5.28;;
58528;SDS011;44322;52.968;5.816;2023-04-15T00:08:45;7.60;;;5.45;;
58528;SDS011;44322;52.968;5.816;2023-04-15T00:11:12;11.00;;;5.35;;
58528;SDS011;44322;52.968;5.816;2023-04-15T00:13:37;11.13;;;5.50;;
58528;SDS011;44322;52.968;5.816;2023-04-15T00:16:04;9.55;;;5.20;;
58528;SDS011;44322;52.968;5.816;2023-04-15T00:18:30;10.23;;;5.10;;
58528;SDS011;44322;52.968;5.816;2023-04-15T00:20:57;10.40;;;5.03;;
58528;SDS011;44322;52.968;5.816;2023-04-15T00:23:23;12.30;;;5.32;;
58528;SDS011;44322;52.968;5.816;2023-04-15T00:25:49;9.95;;;5.15;;
58528;SDS011;44322;52.968;5.816;2023-04-15T00:28:15;11.65;;;5.30;;
58528;SDS011;44322;52.968;5.816;2023-04-15T00:30:41;9.75;;;5.00;;
58528;SDS011;44322;52.968;5.816;2023-04-15T00:33:07;11.07;;;5.53;;
58528;SDS011;44322;52.968;5.816;2023-04-15T00:35:33;8.65;;;5.50;;
58528;SDS011;44322;52.968;5.816;2023-04-15T00:37:58;12.82;;;5.93;;
58528;SDS011;44322;52.968;5.816;2023-04-15T00:40:24;13.50;;;6.07;;
58528;SDS011;44322;52.968;5.816;2023-04-15T00:42:50;12.52;;;5.80;;
58528;SDS011;44322;52.968;5.816;2023-04-15T00:45:16;14.27;;;5.88;;
58528;SDS011;44322;52.968;5.816;2023-04-15T00:47:42;10.07;;;6.15;;
58528;SDS011;44322;52.968;5.816;2023-04-15T00:50:09;12.15;;;6.35;;
58528;SDS011;44322;52.968;5.816;2023-04-15T00:52:36;10.48;;;5.45;;
58528;SDS011;44322;52.968;5.816;2023-04-15T00:55:03;9.23;;;5.63;;
58528;SDS011;44322;52.968;5.816;2023-04-15T00:57:30;8.38;;;5.75;;
58528;SDS011;44322;52.968;5.816;2023-04-15T00:59:56;10.73;;;6.00;;
58528;SDS011;44322;52.968;5.816;2023-04-15T01:02:22;9.25;;;5.32;;
58528;SDS011;44322;52.968;5.816;2023-04-15T01:04:48;11.38;;;5.70;;
58528;SDS011;44322;52.968;5.816;2023-04-15T01:07:15;9.02;;;5.85;;
58528;SDS011;44322;52.968;5.816;2023-04-15T01:09:41;9.15;;;5.72;;
58528;SDS011;44322;52.968;5.816;2023-04-15T01:12:11;7.80;;;6.22;;
58528;SDS011;44322;52.968;5.816;2023-04-15T01:14:39;11.50;;;6.13;;
58528;SDS011;44322;52.968;5.816;2023-04-15T01:17:05;9.57;;;5.63;;
58528;SDS011;44322;52.968;5.816;2023-04-15T01:19:31;9.40;;;5.63;;
58528;SDS011;44322;52.968;5.816;2023-04-15T01:21:57;12.85;;;5.80;;
58528;SDS011;44322;52.968;5.816;2023-04-15T01:24:23;12.57;;;5.93;;
58528;SDS011;44322;52.968;5.816;2023-04-15T01:26:51;14.98;;;6.22;;
58528;SDS011;44322;52.968;5.816;2023-04-15T01:29:17;10.45;;;5.35;;
58528;SDS011;44322;52.968;5.816;2023-04-15T01:31:49;11.15;;;5.85;;
58528;SDS011;44322;52.968;5.816;2023-04-15T01:34:19;11.23;;;6.55;;
58528;SDS011;44322;52.968;5.816;2023-04-15T01:36:45;11.10;;;6.43;;
58528;SDS011;44322;52.968;5.816;2023-04-15T01:39:12;12.73;;;5.75;;
58528;SDS011;44322;52.968;5.816;2023-04-15T01:41:38;12.30;;;6.30;;
58528;SDS011;44322;52.968;5.816;2023-04-15T01:46:32;11.75;;;6.30;;
58528;SDS011;44322;52.968;5.816;2023-04-15T01:48:59;11.45;;;6.32;;
58528;SDS011;44322;52.968;5.816;2023-04-15T01:51:25;10.80;;;6.30;;
58528;SDS011;44322;52.968;5.816;2023-04-15T01:53:51;12.57;;;6.72;;
58528;SDS011;44322;52.968;5.816;2023-04-15T01:56:17;11.50;;;6.28;;
58528;SDS011;44322;52.968;5.816;2023-04-15T01:58:43;10.75;;;6.03;;
58528;SDS011;44322;52.968;5.816;2023-04-15T02:01:09;12.68;;;6.25;;
58528;SDS011;44322;52.968;5.816;2023-04-15T02:03:36;12.45;;;7.07;;
58528;SDS011;44322;52.968;5.816;2023-04-15T02:06:02;10.63;;;6.63;;
58528;SDS011;44322;52.968;5.816;2023-04-15T02:08:28;10.38;;;6.70;;
58528;SDS011;44322;52.968;5.816;2023-04-15T02:10:54;12.30;;;6.63;;
58528;SDS011;44322;52.968;5.816;2023-04-15T02:13:20;12.35;;;6.68;;
58528;SDS011;44322;52.968;5.816;2023-04-15T02:15:48;13.73;;;6.67;;
58528;SDS011;44322;52.968;5.816;2023-04-15T02:18:16;10.98;;;6.72;;
58528;SDS011;44322;52.968;5.816;2023-04-15T02:20:42;13.68;;;7.15;;
58528;SDS011;44322;52.968;5.816;2023-04-15T02:23:08;13.45;;;7.28;;
58528;SDS011;44322;52.968;5.816;2023-04-15T02:25:35;14.95;;;8.23;;
58528;SDS011;44322;52.968;5.816;2023-04-15T02:28:04;10.40;;;6.93;;
58528;SDS011;44322;52.968;5.816;2023-04-15T02:30:30;11.57;;;7.05;;
58528;SDS011;44322;52.968;5.816;2023-04-15T02:33:00;12.27;;;8.02;;
58528;SDS011;44322;52.968;5.816;2023-04-15T02:35:26;12.27;;;7.18;;
58528;SDS011;44322;52.968;5.816;2023-04-15T02:37:52;13.50;;;7.70;;
58528;SDS011;44322;52.968;5.816;2023-04-15T02:40:17;13.07;;;7.85;;
58528;SDS011;44322;52.968;5.816;2023-04-15T02:42:44;16.63;;;7.97;;
58528;SDS011;44322;52.968;5.816;2023-04-15T02:45:12;18.25;;;8.48;;
58528;SDS011;44322;52.968;5.816;2023-04-15T02:47:39;14.45;;;7.85;;
58528;SDS011;44322;52.968;5.816;2023-04-15T02:50:09;17.15;;;8.65;;
58528;SDS011;44322;52.968;5.816;2023-04-15T02:52:41;15.05;;;9.10;;
58528;SDS011;44322;52.968;5.816;2023-04-15T02:55:07;12.90;;;8.70;;
58528;SDS011;44322;52.968;5.816;2023-04-15T02:57:34;14.65;;;9.05;;
58528;SDS011;44322;52.968;5.816;2023-04-15T03:00:05;15.25;;;8.40;;
58528;SDS011;44322;52.968;5.816;2023-04-15T03:02:35;16.63;;;8.98;;
58528;SDS011;44322;52.968;5.816;2023-04-15T03:07:29;17.45;;;9.10;;
58528;SDS011;44322;52.968;5.816;2023-04-15T03:09:55;16.48;;;9.57;;
58528;SDS011;44322;52.968;5.816;2023-04-15T03:12:21;18.40;;;9.85;;
58528;SDS011;44322;52.968;5.816;2023-04-15T03:14:48;18.00;;;9.82;;
58528;SDS011;44322;52.968;5.816;2023-04-15T03:17:14;12.68;;;9.40;;
58528;SDS011;44322;52.968;5.816;2023-04-15T03:19:42;16.43;;;9.97;;
58528;SDS011;44322;52.968;5.816;2023-04-15T03:22:08;16.10;;;9.80;;
58528;SDS011;44322;52.968;5.816;2023-04-15T03:24:34;19.15;;;10.07;;
58528;SDS011;44322;52.968;5.816;2023-04-15T03:27:00;14.75;;;8.38;;
58528;SDS011;44322;52.968;5.816;2023-04-15T03:29:26;17.02;;;10.05;;
58528;SDS011;44322;52.968;5.816;2023-04-15T03:31:52;14.93;;;9.32;;
58528;SDS011;44322;52.968;5.816;2023-04-15T03:34:18;14.82;;;9.73;;
58528;SDS011;44322;52.968;5.816;2023-04-15T03:36:43;16.85;;;10.55;;
58528;SDS011;44322;52.968;5.816;2023-04-15T03:39:10;18.25;;;10.40;;
58528;SDS011;44322;52.968;5.816;2023-04-15T03:41:36;15.63;;;10.05;;
58528;SDS011;44322;52.968;5.816;2023-04-15T03:44:01;19.77;;;11.48;;
58528;SDS011;44322;52.968;5.816;2023-04-15T03:46:27;16.90;;;10.75;;
58528;SDS011;44322;52.968;5.816;2023-04-15T03:48:52;17.73;;;10.77;;
58528;SDS011;44322;52.968;5.816;2023-04-15T03:51:18;17.10;;;11.13;;
58528;SDS011;44322;52.968;5.816;2023-04-15T03:53:44;20.73;;;12.00;;
58528;SDS011;44322;52.968;5.816;2023-04-15T03:56:09;17.67;;;12.07;;
58528;SDS011;44322;52.968;5.816;2023-04-15T03:58:35;20.10;;;12.07;;
58528;SDS011;44322;52.968;5.816;2023-04-15T04:01:01;20.35;;;11.93;;
58528;SDS011;44322;52.968;5.816;2023-04-15T04:03:26;19.92;;;11.68;;
58528;SDS011;44322;52.968;5.816;2023-04-15T04:05:52;18.27;;;11.45;;
58528;SDS011;44322;52.968;5.816;2023-04-15T04:08:17;17.55;;;11.55;;
58528;SDS011;44322;52.968;5.816;2023-04-15T04:10:44;19.10;;;11.38;;
58528;SDS011;44322;52.968;5.816;2023-04-15T04:13:09;18.27;;;11.35;;
58528;SDS011;44322;52.968;5.816;2023-04-15T04:15:35;13.93;;;9.48;;
58528;SDS011;44322;52.968;5.816;2023-04-15T04:18:01;18.85;;;11.52;;
58528;SDS011;44322;52.968;5.816;2023-04-15T04:20:26;16.55;;;10.75;;
58528;SDS011;44322;52.968;5.816;2023-04-15T04:22:52;15.32;;;10.70;;
58528;SDS011;44322;52.968;5.816;2023-04-15T04:25:17;17.33;;;11.52;;
58528;SDS011;44322;52.968;5.816;2023-04-15T04:27:43;17.20;;;10.57;;
58528;SDS011;44322;52.968;5.816;2023-04-15T04:30:10;18.85;;;11.57;;
58528;SDS011;44322;52.968;5.816;2023-04-15T04:32:36;18.85;;;11.55;;
58528;SDS011;44322;52.968;5.816;2023-04-15T04:35:02;17.88;;;11.68;;
58528;SDS011;44322;52.968;5.816;2023-04-15T04:37:29;18.58;;;12.13;;
58528;SDS011;44322;52.968;5.816;2023-04-15T04:39:55;19.20;;;12.05;;
58528;SDS011;44322;52.968;5.816;2023-04-15T04:42:20;18.05;;;10.70;;
58528;SDS011;44322;52.968;5.816;2023-04-15T04:44:46;18.80;;;12.30;;
58528;SDS011;44322;52.968;5.816;2023-04-15T04:47:12;17.67;;;10.88;;
58528;SDS011;44322;52.968;5.816;2023-04-15T04:49:38;18.30;;;11.80;;
58528;SDS011;44322;52.968;5.816;2023-04-15T04:52:04;18.85;;;11.63;;
58528;SDS011;44322;52.968;5.816;2023-04-15T04:54:29;14.57;;;10.02;;
58528;SDS011;44322;52.968;5.816;2023-04-15T04:56:55;13.60;;;9.65;;
58528;SDS011;44322;52.968;5.816;2023-04-15T04:59:22;18.08;;;11.05;;
58528;SDS011;44322;52.968;5.816;2023-04-15T05:01:48;17.45;;;11.00;;
58528;SDS011;44322;52.968;5.816;2023-04-15T05:04:13;12.80;;;8.57;;
58528;SDS011;44322;52.968;5.816;2023-04-15T05:06:39;15.20;;;9.73;;
58528;SDS011;44322;52.968;5.816;2023-04-15T05:09:05;15.95;;;10.68;;
58528;SDS011;44322;52.968;5.816;2023-04-15T05:11:30;17.65;;;10.55;;
58528;SDS011;44322;52.968;5.816;2023-04-15T05:13:56;16.90;;;11.07;;
58528;SDS011;44322;52.968;5.816;2023-04-15T05:16:23;18.63;;;10.33;;
58528;SDS011;44322;52.968;5.816;2023-04-15T05:18:50;17.30;;;11.02;;
58528;SDS011;44322;52.968;5.816;2023-04-15T05:21:16;14.40;;;9.93;;
58528;SDS011;44322;52.968;5.816;2023-04-15T05:23:41;17.05;;;11.05;;
58528;SDS011;44322;52.968;5.816;2023-04-15T05:26:07;15.85;;;10.73;;
58528;SDS011;44322;52.968;5.816;2023-04-15T05:28:33;14.20;;;10.55;;
58528;SDS011;44322;52.968;5.816;2023-04-15T05:30:58;16.52;;;10.70;;
58528;SDS011;44322;52.968;5.816;2023-04-15T05:33:24;17.90;;;11.07;;
58528;SDS011;44322;52.968;5.816;2023-04-15T05:35:50;19.45;;;12.18;;
58528;SDS011;44322;52.968;5.816;2023-04-15T05:38:15;20.42;;;12.65;;
58528;SDS011;44322;52.968;5.816;2023-04-15T05:40:41;17.88;;;11.98;;
58528;SDS011;44322;52.968;5.816;2023-04-15T05:43:07;20.08;;;13.20;;
58528;SDS011;44322;52.968;5.816;2023-04-15T05:45:32;20.27;;;13.10;;
58528;SDS011;44322;52.968;5.816;2023-04-15T05:47:58;20.25;;;12.13;;
58528;SDS011;44322;52.968;5.816;2023-04-15T05:50:23;22.55;;;13.43;;
58528;SDS011;44322;52.968;5.816;2023-04-15T05:52:49;22.27;;;13.80;;
58528;SDS011;44322;52.968;5.816;2023-04-15T05:55:15;20.80;;;12.98;;
58528;SDS011;44322;52.968;5.816;2023-04-15T05:57:41;17.73;;;11.27;;
58528;SDS011;44322;52.968;5.816;2023-04-15T06:00:07;20.55;;;13.65;;
58528;SDS011;44322;52.968;5.816;2023-04-15T06:02:36;21.88;;;13.35;;
58528;SDS011;44322;52.968;5.816;2023-04-15T06:05:01;21.00;;;12.70;;
58528;SDS011;44322;52.968;5.816;2023-04-15T06:07:28;19.63;;;12.10;;
58528;SDS011;44322;52.968;5.816;2023-04-15T06:09:53;21.25;;;14.30;;
58528;SDS011;44322;52.968;5.816;2023-04-15T06:12:19;17.80;;;12.25;;
58528;SDS011;44322;52.968;5.816;2023-04-15T06:14:45;20.70;;;13.82;;
58528;SDS011;44322;52.968;5.816;2023-04-15T06:17:10;21.27;;;13.50;;
58528;SDS011;44322;52.968;5.816;2023-04-15T06:22:04;20.23;;;13.52;;
58528;SDS011;44322;52.968;5.816;2023-04-15T06:24:31;21.88;;;14.40;;
58528;SDS011;44322;52.968;5.816;2023-04-15T06:26:57;22.38;;;14.30;;
58528;SDS011;44322;52.968;5.816;2023-04-15T06:29:26;21.20;;;12.90;;
58528;SDS011;44322;52.968;5.816;2023-04-15T06:31:52;21.25;;;14.30;;
58528;SDS011;44322;52.968;5.816;2023-04-15T06:34:17;22.75;;;14.13;;
58528;SDS011;44322;52.968;5.816;2023-04-15T06:36:43;21.88;;;13.77;;
58528;SDS011;44322;52.968;5.816;2023-04-15T06:39:08;19.60;;;12.75;;
58528;SDS011;44322;52.968;5.816;2023-04-15T06:41:35;20.65;;;12.20;;
58528;SDS011;44322;52.968;5.816;2023-04-15T06:44:01;20.77;;;12.80;;
58528;SDS011;44322;52.968;5.816;2023-04-15T06:46:29;18.40;;;12.07;;
58528;SDS011;44322;52.968;5.816;2023-04-15T06:48:55;18.88;;;12.13;;
58528;SDS011;44322;52.968;5.816;2023-04-15T06:51:24;16.85;;;12.07;;
58528;SDS011;44322;52.968;5.816;2023-04-15T06:53:50;15.85;;;11.05;;
58528;SDS011;44322;52.968;5.816;2023-04-15T06:56:15;16.55;;;11.02;;
58528;SDS011;44322;52.968;5.816;2023-04-15T06:58:41;16.55;;;11.25;;
58528;SDS011;44322;52.968;5.816;2023-04-15T07:01:07;16.55;;;11.95;;
58528;SDS011;44322;52.968;5.816;2023-04-15T07:03:33;16.33;;;10.93;;
58528;SDS011;44322;52.968;5.816;2023-04-15T07:05:59;17.88;;;11.10;;
58528;SDS011;44322;52.968;5.816;2023-04-15T07:08:25;17.55;;;10.95;;
58528;SDS011;44322;52.968;5.816;2023-04-15T07:10:51;19.52;;;10.70;;
58528;SDS011;44322;52.968;5.816;2023-04-15T07:13:18;17.35;;;11.60;;
58528;SDS011;44322;52.968;5.816;2023-04-15T07:15:43;19.70;;;11.73;;
58528;SDS011;44322;52.968;5.816;2023-04-15T07:18:11;16.50;;;10.30;;
58528;SDS011;44322;52.968;5.816;2023-04-15T07:20:37;17.15;;;10.63;;
58528;SDS011;44322;52.968;5.816;2023-04-15T07:23:03;13.55;;;9.20;;
58528;SDS011;44322;52.968;5.816;2023-04-15T07:25:28;15.57;;;9.63;;
58528;SDS011;44322;52.968;5.816;2023-04-15T07:27:54;12.30;;;8.73;;
58528;SDS011;44322;52.968;5.816;2023-04-15T07:30:19;11.40;;;8.32;;
58528;SDS011;44322;52.968;5.816;2023-04-15T07:32:45;13.40;;;9.00;;
58528;SDS011;44322;52.968;5.816;2023-04-15T07:35:11;11.23;;;8.57;;
58528;SDS011;44322;52.968;5.816;2023-04-15T07:37:37;13.32;;;8.80;;
58528;SDS011;44322;52.968;5.816;2023-04-15T07:40:03;12.43;;;7.65;;
58528;SDS011;44322;52.968;5.816;2023-04-15T07:42:32;11.68;;;7.70;;
58528;SDS011;44322;52.968;5.816;2023-04-15T07:45:05;12.13;;;7.13;;
58528;SDS011;44322;52.968;5.816;2023-04-15T07:47:32;10.60;;;7.67;;
58528;SDS011;44322;52.968;5.816;2023-04-15T07:49:58;11.10;;;7.57;;
58528;SDS011;44322;52.968;5.816;2023-04-15T07:52:25;12.35;;;7.32;;
58528;SDS011;44322;52.968;5.816;2023-04-15T07:54:51;10.35;;;7.05;;
58528;SDS011;44322;52.968;5.816;2023-04-15T07:57:17;11.13;;;7.63;;
58528;SDS011;44322;52.968;5.816;2023-04-15T07:59:44;10.88;;;6.88;;
58528;SDS011;44322;52.968;5.816;2023-04-15T08:02:14;9.90;;;6.68;;
58528;SDS011;44322;52.968;5.816;2023-04-15T08:04:40;11.13;;;6.78;;
58528;SDS011;44322;52.968;5.816;2023-04-15T08:07:07;10.25;;;6.20;;
58528;SDS011;44322;52.968;5.816;2023-04-15T08:09:33;7.95;;;5.93;;
58528;SDS011;44322;52.968;5.816;2023-04-15T08:12:00;9.32;;;5.15;;
58528;SDS011;44322;52.968;5.816;2023-04-15T08:14:29;8.65;;;5.45;;
58528;SDS011;44322;52.968;5.816;2023-04-15T08:16:59;8.02;;;5.38;;
58528;SDS011;44322;52.968;5.816;2023-04-15T08:19:28;7.25;;;4.72;;
58528;SDS011;44322;52.968;5.816;2023-04-15T08:21:59;7.65;;;5.07;;
58528;SDS011;44322;52.968;5.816;2023-04-15T08:24:25;7.47;;;5.30;;
58528;SDS011;44322;52.968;5.816;2023-04-15T08:26:52;6.85;;;5.20;;
58528;SDS011;44322;52.968;5.816;2023-04-15T08:29:17;9.60;;;5.55;;
58528;SDS011;44322;52.968;5.816;2023-04-15T08:31:43;7.85;;;5.07;;
58528;SDS011;44322;52.968;5.816;2023-04-15T08:34:12;7.72;;;4.95;;
58528;SDS011;44322;52.968;5.816;2023-04-15T08:36:39;8.32;;;4.93;;
58528;SDS011;44322;52.968;5.816;2023-04-15T08:39:05;7.32;;;4.68;;
58528;SDS011;44322;52.968;5.816;2023-04-15T08:41:39;5.18;;;4.05;;
58528;SDS011;44322;52.968;5.816;2023-04-15T08:44:08;7.28;;;4.07;;
58528;SDS011;44322;52.968;5.816;2023-04-15T08:46:35;4.72;;;3.92;;
58528;SDS011;44322;52.968;5.816;2023-04-15T08:49:02;4.75;;;3.63;;
58528;SDS011;44322;52.968;5.816;2023-04-15T08:51:28;5.72;;;3.75;;
58528;SDS011;44322;52.968;5.816;2023-04-15T08:53:54;5.55;;;4.25;;
58528;SDS011;44322;52.968;5.816;2023-04-15T08:56:24;5.85;;;3.70;;
58528;SDS011;44322;52.968;5.816;2023-04-15T08:58:51;6.18;;;3.80;;
58528;SDS011;44322;52.968;5.816;2023-04-15T09:01:18;5.60;;;3.92;;
58528;SDS011;44322;52.968;5.816;2023-04-15T09:03:43;6.57;;;4.15;;
58528;SDS011;44322;52.968;5.816;2023-04-15T09:06:10;5.78;;;4.13;;
58528;SDS011;44322;52.968;5.816;2023-04-15T09:08:36;5.95;;;4.18;;
58528;SDS011;44322;52.968;5.816;2023-04-15T09:11:02;6.55;;;4.05;;
58528;SDS011;44322;52.968;5.816;2023-04-15T09:13:28;6.78;;;4.53;;
58528;SDS011;44322;52.968;5.816;2023-04-15T09:15:54;7.78;;;4.30;;
58528;SDS011;44322;52.968;5.816;2023-04-15T09:18:26;7.65;;;5.03;;
58528;SDS011;44322;52.968;5.816;2023-04-15T09:20:53;8.95;;;4.63;;
58528;SDS011;44322;52.968;5.816;2023-04-15T09:23:19;7.93;;;5.18;;
58528;SDS011;44322;52.968;5.816;2023-04-15T09:25:48;8.63;;;4.55;;
58528;SDS011;44322;52.968;5.816;2023-04-15T09:28:14;8.05;;;4.70;;
58528;SDS011;44322;52.968;5.816;2023-04-15T09:30:56;7.20;;;4.80;;
58528;SDS011;44322;52.968;5.816;2023-04-15T09:33:27;8.77;;;4.47;;
58528;SDS011;44322;52.968;5.816;2023-04-15T09:38:23;6.50;;;4.30;;
58528;SDS011;44322;52.968;5.816;2023-04-15T09:40:48;5.90;;;3.97;;
58528;SDS011;44322;52.968;5.816;2023-04-15T09:43:14;5.18;;;3.80;;
58528;SDS011;44322;52.968;5.816;2023-04-15T09:48:18;6.18;;;3.67;;
58528;SDS011;44322;52.968;5.816;2023-04-15T09:50:49;8.00;;;3.60;;
58528;SDS011;44322;52.968;5.816;2023-04-15T09:55:50;5.40;;;3.50;;
58528;SDS011;44322;52.968;5.816;2023-04-15T09:58:17;5.85;;;2.83;;
58528;SDS011;44322;52.968;5.816;2023-04-15T10:00:48;8.60;;;3.63;;
58528;SDS011;44322;52.968;5.816;2023-04-15T10:03:19;6.90;;;3.60;;
58528;SDS011;44322;52.968;5.816;2023-04-15T10:05:49;7.72;;;4.28;;
58528;SDS011;44322;52.968;5.816;2023-04-15T10:08:23;6.20;;;3.78;;
58528;SDS011;44322;52.968;5.816;2023-04-15T10:10:51;5.68;;;3.20;;
58528;SDS011;44322;52.968;5.816;2023-04-15T10:13:24;4.60;;;2.97;;
58528;SDS011;44322;52.968;5.816;2023-04-15T10:16:05;6.55;;;3.40;;
58528;SDS011;44322;52.968;5.816;2023-04-15T10:18:33;5.68;;;2.92;;
58528;SDS011;44322;52.968;5.816;2023-04-15T10:21:00;4.50;;;2.90;;
58528;SDS011;44322;52.968;5.816;2023-04-15T10:23:26;5.53;;;2.72;;
58528;SDS011;44322;52.968;5.816;2023-04-15T10:25:52;6.18;;;2.65;;
58528;SDS011;44322;52.968;5.816;2023-04-15T10:28:21;2.92;;;1.90;;
58528;SDS011;44322;52.968;5.816;2023-04-15T10:30:47;4.45;;;2.08;;
58528;SDS011;44322;52.968;5.816;2023-04-15T10:33:14;3.42;;;2.10;;
58528;SDS011;44322;52.968;5.816;2023-04-15T10:41:17;4.20;;;2.30;;
58528;SDS011;44322;52.968;5.816;2023-04-15T10:43:48;3.88;;;1.75;;
58528;SDS011;44322;52.968;5.816;2023-04-15T10:46:22;4.30;;;1.50;;
58528;SDS011;44322;52.968;5.816;2023-04-15T10:48:50;2.85;;;1.60;;
58528;SDS011;44322;52.968;5.816;2023-04-15T10:51:29;1.30;;;1.20;;
58528;SDS011;44322;52.968;5.816;2023-04-15T10:53:58;2.47;;;1.20;;
58528;SDS011;44322;52.968;5.816;2023-04-15T10:56:27;4.28;;;1.75;;
58528;SDS011;44322;52.968;5.816;2023-04-15T10:58:54;2.83;;;1.40;;
58528;SDS011;44322;52.968;5.816;2023-04-15T11:01:21;2.47;;;1.50;;
58528;SDS011;44322;52.968;5.816;2023-04-15T11:03:49;3.33;;;1.55;;
58528;SDS011;44322;52.968;5.816;2023-04-15T11:06:15;2.53;;;1.40;;
58528;SDS011;44322;52.968;5.816;2023-04-15T11:08:57;2.13;;;1.40;;
58528;SDS011;44322;52.968;5.816;2023-04-15T11:14:31;2.60;;;1.75;;
58528;SDS011;44322;52.968;5.816;2023-04-15T11:16:58;2.08;;;1.20;;
58528;SDS011;44322;52.968;5.816;2023-04-15T11:19:23;2.45;;;1.27;;
58528;SDS011;44322;52.968;5.816;2023-04-15T11:21:49;2.83;;;1.70;;
58528;SDS011;44322;52.968;5.816;2023-04-15T11:24:24;2.20;;;1.48;;
58528;SDS011;44322;52.968;5.816;2023-04-15T11:29:50;1.67;;;1.50;;
58528;SDS011;44322;52.968;5.816;2023-04-15T11:32:22;3.85;;;2.15;;
58528;SDS011;44322;52.968;5.816;2023-04-15T11:34:51;3.85;;;1.73;;
58528;SDS011;44322;52.968;5.816;2023-04-15T11:37:17;2.38;;;1.75;;
58528;SDS011;44322;52.968;5.816;2023-04-15T11:39:52;3.60;;;2.20;;
58528;SDS011;44322;52.968;5.816;2023-04-15T11:42:18;5.05;;;2.00;;
58528;SDS011;44322;52.968;5.816;2023-04-15T11:44:44;3.83;;;2.10;;
58528;SDS011;44322;52.968;5.816;2023-04-15T11:47:31;2.42;;;1.83;;
58528;SDS011;44322;52.968;5.816;2023-04-15T11:49:55;2.42;;;1.80;;
58528;SDS011;44322;52.968;5.816;2023-04-15T11:52:21;3.33;;;1.80;;
58528;SDS011;44322;52.968;5.816;2023-04-15T11:54:46;3.10;;;2.35;;
58528;SDS011;44322;52.968;5.816;2023-04-15T11:57:12;2.45;;;1.63;;
58528;SDS011;44322;52.968;5.816;2023-04-15T11:59:41;3.03;;;1.88;;
58528;SDS011;44322;52.968;5.816;2023-04-15T12:02:11;3.42;;;1.90;;
58528;SDS011;44322;52.968;5.816;2023-04-15T12:04:37;4.15;;;2.50;;
58528;SDS011;44322;52.968;5.816;2023-04-15T12:07:03;4.60;;;2.13;;
58528;SDS011;44322;52.968;5.816;2023-04-15T12:09:29;2.92;;;1.67;;
58528;SDS011;44322;52.968;5.816;2023-04-15T12:11:56;3.70;;;1.95;;
58528;SDS011;44322;52.968;5.816;2023-04-15T12:14:31;4.25;;;2.38;;
58528;SDS011;44322;52.968;5.816;2023-04-15T12:16:58;4.82;;;2.30;;
58528;SDS011;44322;52.968;5.816;2023-04-15T12:19:26;4.72;;;2.03;;
58528;SDS011;44322;52.968;5.816;2023-04-15T12:22:03;4.43;;;2.17;;
58528;SDS011;44322;52.968;5.816;2023-04-15T12:24:31;5.00;;;2.00;;
58528;SDS011;44322;52.968;5.816;2023-04-15T12:27:00;4.43;;;2.10;;
58528;SDS011;44322;52.968;5.816;2023-04-15T12:29:28;5.38;;;2.10;;
58528;SDS011;44322;52.968;5.816;2023-04-15T12:31:58;4.28;;;1.88;;
58528;SDS011;44322;52.968;5.816;2023-04-15T12:34:51;5.50;;;1.90;;
58528;SDS011;44322;52.968;5.816;2023-04-15T12:37:18;4.05;;;1.83;;
58528;SDS011;44322;52.968;5.816;2023-04-15T12:39:46;5.95;;;1.83;;
58528;SDS011;44322;52.968;5.816;2023-04-15T12:42:13;4.45;;;1.77;;
58528;SDS011;44322;52.968;5.816;2023-04-15T12:44:39;5.85;;;1.67;;
58528;SDS011;44322;52.968;5.816;2023-04-15T12:47:05;8.93;;;2.13;;
58528;SDS011;44322;52.968;5.816;2023-04-15T12:49:31;7.00;;;1.67;;
58528;SDS011;44322;52.968;5.816;2023-04-15T12:51:58;4.90;;;1.85;;
58528;SDS011;44322;52.968;5.816;2023-04-15T12:54:25;6.82;;;2.00;;
58528;SDS011;44322;52.968;5.816;2023-04-15T12:56:51;6.25;;;2.17;;
58528;SDS011;44322;52.968;5.816;2023-04-15T12:59:17;9.07;;;2.10;;
58528;SDS011;44322;52.968;5.816;2023-04-15T13:01:43;5.22;;;1.70;;
58528;SDS011;44322;52.968;5.816;2023-04-15T13:04:09;5.53;;;1.70;;
58528;SDS011;44322;52.968;5.816;2023-04-15T13:06:35;5.72;;;1.90;;
58528;SDS011;44322;52.968;5.816;2023-04-15T13:09:01;6.55;;;1.98;;
58528;SDS011;44322;52.968;5.816;2023-04-15T13:11:27;6.97;;;2.08;;
58528;SDS011;44322;52.968;5.816;2023-04-15T13:13:55;6.72;;;1.88;;
58528;SDS011;44322;52.968;5.816;2023-04-15T13:16:22;8.57;;;1.90;;
58528;SDS011;44322;52.968;5.816;2023-04-15T13:18:48;9.77;;;1.92;;
58528;SDS011;44322;52.968;5.816;2023-04-15T13:21:14;8.93;;;1.73;;
58528;SDS011;44322;52.968;5.816;2023-04-15T13:23:40;7.13;;;1.67;;
58528;SDS011;44322;52.968;5.816;2023-04-15T13:26:06;6.72;;;1.92;;
58528;SDS011;44322;52.968;5.816;2023-04-15T13:28:32;7.30;;;2.47;;
58528;SDS011;44322;52.968;5.816;2023-04-15T13:30:58;8.75;;;2.10;;
58528;SDS011;44322;52.968;5.816;2023-04-15T13:33:25;7.30;;;1.48;;
58528;SDS011;44322;52.968;5.816;2023-04-15T13:35:50;5.22;;;1.58;;
58528;SDS011;44322;52.968;5.816;2023-04-15T13:38:16;6.75;;;1.33;;
58528;SDS011;44322;52.968;5.816;2023-04-15T13:40:42;9.35;;;1.83;;
58528;SDS011;44322;52.968;5.816;2023-04-15T13:43:07;10.27;;;2.00;;
58528;SDS011;44322;52.968;5.816;2023-04-15T13:45:33;6.50;;;1.85;;
58528;SDS011;44322;52.968;5.816;2023-04-15T13:47:59;9.60;;;2.10;;
58528;SDS011;44322;52.968;5.816;2023-04-15T13:50:25;11.23;;;1.83;;
58528;SDS011;44322;52.968;5.816;2023-04-15T13:52:50;11.60;;;1.92;;
58528;SDS011;44322;52.968;5.816;2023-04-15T13:55:16;6.95;;;1.60;;
58528;SDS011;44322;52.968;5.816;2023-04-15T13:57:42;8.18;;;1.75;;
58528;SDS011;44322;52.968;5.816;2023-04-15T14:00:07;8.98;;;1.75;;
58528;SDS011;44322;52.968;5.816;2023-04-15T14:02:33;6.00;;;1.40;;
58528;SDS011;44322;52.968;5.816;2023-04-15T14:04:59;4.13;;;1.20;;
58528;SDS011;44322;52.968;5.816;2023-04-15T14:07:25;9.23;;;1.90;;
58528;SDS011;44322;52.968;5.816;2023-04-15T14:09:50;7.05;;;1.55;;
58528;SDS011;44322;52.968;5.816;2023-04-15T14:12:16;8.00;;;1.95;;
58528;SDS011;44322;52.968;5.816;2023-04-15T14:14:41;10.68;;;1.40;;
58528;SDS011;44322;52.968;5.816;2023-04-15T14:17:08;6.22;;;1.42;;
58528;SDS011;44322;52.968;5.816;2023-04-15T14:19:34;6.25;;;1.70;;
58528;SDS011;44322;52.968;5.816;2023-04-15T14:22:00;6.15;;;1.38;;
58528;SDS011;44322;52.968;5.816;2023-04-15T14:24:25;4.35;;;1.33;;
58528;SDS011;44322;52.968;5.816;2023-04-15T14:26:51;5.03;;;1.20;;
58528;SDS011;44322;52.968;5.816;2023-04-15T14:29:17;6.72;;;1.40;;
58528;SDS011;44322;52.968;5.816;2023-04-15T14:31:43;4.63;;;1.30;;
58528;SDS011;44322;52.968;5.816;2023-04-15T14:34:09;4.55;;;1.17;;
58528;SDS011;44322;52.968;5.816;2023-04-15T14:36:35;8.93;;;1.48;;
58528;SDS011;44322;52.968;5.816;2023-04-15T14:39:00;5.72;;;1.42;;
58528;SDS011;44322;52.968;5.816;2023-04-15T14:41:28;6.37;;;1.20;;
58528;SDS011;44322;52.968;5.816;2023-04-15T14:43:54;3.30;;;1.23;;
58528;SDS011;44322;52.968;5.816;2023-04-15T14:46:21;6.38;;;1.15;;
58528;SDS011;44322;52.968;5.816;2023-04-15T14:48:46;8.55;;;1.80;;
58528;SDS011;44322;52.968;5.816;2023-04-15T14:51:12;7.65;;;1.77;;
58528;SDS011;44322;52.968;5.816;2023-04-15T14:53:44;8.13;;;1.48;;
58528;SDS011;44322;52.968;5.816;2023-04-15T14:56:10;8.75;;;1.42;;
58528;SDS011;44322;52.968;5.816;2023-04-15T14:58:36;9.25;;;1.65;;
58528;SDS011;44322;52.968;5.816;2023-04-15T15:01:02;10.02;;;1.30;;
58528;SDS011;44322;52.968;5.816;2023-04-15T15:03:28;8.13;;;1.40;;